Time;durP1;ratioP1;P1;durP2;ratioP2;P2;SDS_P1;SDS_P2;PMS_P1;PMS_P2;Temp;Humidity;BMP_temperature;BMP_pressure;BME280_temperature;BME280_humidity;BME280_pressure;Samples;Min_cycle;Max_cycle;Signal;HPM_P1;HPM_P2
2022/10/18 00:01:00;;;;;;;15.20;7.55;;;;;;;14.44;100.00;102472.75;5089313;28;20040;-67
2022/10/18 00:03:25;;;;;;;12.65;7.70;;;;;;;14.44;100.00;102470.91;5089573;28;20073;-67
2022/10/18 00:05:51;;;;;;;14.90;8.45;;;;;;;14.43;100.00;102463.84;5089520;28;20036;-67
2022/10/18 00:08:17;;;;;;;15.90;7.53;;;;;;;14.44;100.00;102465.53;5089292;28;20032;-67
2022/10/18 00:10:43;;;;;;;14.68;7.68;;;;;;;14.39;100.00;102461.72;5089474;28;20149;-67
2022/10/18 00:13:08;;;;;;;13.70;7.93;;;;;;;14.36;100.00;102464.78;5089176;28;20119;-67
2022/10/18 00:15:34;;;;;;;17.20;8.52;;;;;;;14.34;100.00;102454.22;5089222;28;20122;-67
2022/10/18 00:17:59;;;;;;;15.68;8.10;;;;;;;14.31;100.00;102453.75;5089447;28;20066;-67
2022/10/18 00:20:24;;;;;;;14.18;8.40;;;;;;;14.30;100.00;102447.53;5088898;28;20055;-67
2022/10/18 00:22:50;;;;;;;16.30;7.97;;;;;;;14.28;100.00;102444.22;5089395;28;20435;-67
2022/10/18 00:25:15;;;;;;;13.15;7.78;;;;;;;14.30;100.00;102452.91;5089315;28;20028;-67
2022/10/18 00:27:41;;;;;;;13.70;8.05;;;;;;;14.30;100.00;102455.59;5089399;28;20471;-67
2022/10/18 00:30:07;;;;;;;17.08;7.82;;;;;;;14.19;100.00;102446.13;5089484;28;20035;-67
2022/10/18 00:32:40;;;;;;;13.98;6.75;;;;;;;14.24;100.00;102454.47;5089484;28;20065;-67
2022/10/18 00:35:06;;;;;;;17.83;9.35;;;;;;;14.23;100.00;102458.19;5089251;28;20597;-67
2022/10/18 00:37:32;;;;;;;14.68;6.85;;;;;;;14.24;100.00;102461.69;5088834;28;20043;-67
2022/10/18 00:39:57;;;;;;;14.52;7.07;;;;;;;14.20;100.00;102458.53;5088725;28;20366;-67
2022/10/18 00:42:28;;;;;;;13.30;7.57;;;;;;;14.26;100.00;102462.34;5088647;28;20060;-67
2022/10/18 00:45:16;;;;;;;14.38;9.10;;;;;;;14.25;100.00;102461.53;5089123;28;20522;-67
2022/10/18 00:47:46;;;;;;;14.18;7.28;;;;;;;14.20;100.00;102461.22;5083734;28;20048;-67
2022/10/18 00:50:12;;;;;;;16.83;8.35;;;;;;;14.21;100.00;102459.38;5088969;28;20502;-67
2022/10/18 00:52:42;;;;;;;13.30;7.55;;;;;;;14.19;100.00;102462.22;5088788;28;20028;-67
2022/10/18 00:55:09;;;;;;;13.23;8.50;;;;;;;14.23;100.00;102460.03;5088548;28;20023;-67
2022/10/18 00:57:35;;;;;;;14.77;7.80;;;;;;;14.20;100.00;102463.91;5089096;28;20023;-67
2022/10/18 01:00:01;;;;;;;14.23;8.38;;;;;;;14.21;100.00;102464.75;5088756;28;20067;-67
2022/10/18 01:02:27;;;;;;;13.82;7.15;;;;;;;14.21;100.00;102460.19;5089049;28;20060;-66
2022/10/18 01:04:52;;;;;;;13.93;7.28;;;;;;;14.20;100.00;102463.06;5087522;28;20914;-65
2022/10/18 01:07:24;;;;;;;12.48;7.70;;;;;;;14.21;100.00;102462.88;5092313;28;20046;-65
2022/10/18 01:10:10;;;;;;;12.45;6.80;;;;;;;14.19;100.00;102462.22;5092488;28;20100;-65
2022/10/18 01:13:00;;;;;;;11.75;6.75;;;;;;;14.20;100.00;102473.78;5092654;28;20028;-65
2022/10/18 01:15:30;;;;;;;12.63;7.40;;;;;;;14.18;100.00;102473.97;5092432;28;20379;-65
2022/10/18 01:18:31;;;;;;;14.68;8.15;;;;;;;14.21;100.00;102476.31;5092570;28;20030;-66
2022/10/18 01:21:12;;;;;;;17.27;7.15;;;;;;;14.17;100.00;102474.16;5092343;28;20626;-65
2022/10/18 01:23:49;;;;;;;13.93;6.75;;;;;;;14.17;100.00;102475.00;5092502;28;20101;-65
2022/10/18 01:26:33;;;;;;;15.63;7.25;;;;;;;14.15;100.00;102473.53;5092293;28;20039;-66
2022/10/18 01:29:36;;;;;;;12.93;7.07;;;;;;;14.09;100.00;102466.16;5092114;28;20455;-66
2022/10/18 01:32:06;;;;;;;18.95;7.97;;;;;;;14.10;100.00;102468.69;5092365;28;20027;-66
2022/10/18 01:34:35;;;;;;;15.57;7.30;;;;;;;14.05;100.00;102470.25;5091878;28;20483;-66
2022/10/18 01:37:03;;;;;;;17.63;7.97;;;;;;;14.03;100.00;102467.72;5092232;28;20473;-65
2022/10/18 01:39:34;;;;;;;12.88;7.70;;;;;;;14.07;100.00;102463.69;5092241;28;20617;-66
2022/10/18 01:42:03;;;;;;;16.42;8.63;;;;;;;14.09;100.00;102471.53;5091723;28;20032;-66
2022/10/18 01:44:31;;;;;;;18.08;8.55;;;;;;;14.12;100.00;102476.53;5091786;28;20027;-65
2022/10/18 01:46:58;;;;;;;14.00;8.07;;;;;;;14.09;100.00;102466.16;5091907;28;20442;-65
2022/10/18 01:49:25;;;;;;;16.38;8.55;;;;;;;14.09;100.00;102472.38;5091974;28;20508;-66
2022/10/18 01:51:50;;;;;;;13.35;6.57;;;;;;;14.11;100.00;102475.72;5091952;28;20127;-66
2022/10/18 01:54:21;;;;;;;13.25;7.75;;;;;;;14.10;100.00;102478.59;5091883;28;20103;-67
2022/10/18 01:57:04;;;;;;;16.20;6.95;;;;;;;14.11;100.00;102480.25;5091587;28;20763;-67
2022/10/18 01:59:54;;;;;;;15.18;8.32;;;;;;;14.11;100.00;102475.72;5091565;28;20043;-67
2022/10/18 02:02:37;;;;;;;10.68;7.03;;;;;;;14.11;100.00;102480.25;5091717;28;20368;-67
2022/10/18 02:05:18;;;;;;;10.23;6.30;;;;;;;14.08;100.00;102484.13;5091716;28;20028;-67
2022/10/18 02:08:03;;;;;;;11.55;6.50;;;;;;;14.06;100.00;102479.94;5091907;28;20032;-67
2022/10/18 02:10:41;;;;;;;12.95;7.10;;;;;;;14.08;100.00;102484.13;5091541;28;20061;-67
2022/10/18 02:13:11;;;;;;;13.32;7.32;;;;;;;14.07;100.00;102481.59;5091520;28;20028;-67
2022/10/18 02:15:40;;;;;;;17.30;8.65;;;;;;;14.01;100.00;102464.38;5091483;28;20036;-67
2022/10/18 02:18:37;;;;;;;11.63;6.88;;;;;;;14.11;100.00;102473.03;5090503;28;20038;-67
2022/10/18 02:21:07;;;;;;;12.95;6.20;;;;;;;14.06;100.00;102472.72;5089116;28;20064;-67
2022/10/18 02:23:33;;;;;;;11.73;7.20;;;;;;;13.93;100.00;102461.78;5091334;28;20378;-67
2022/10/18 02:25:59;;;;;;;14.80;8.23;;;;;;;13.91;100.00;102464.66;5090867;28;20868;-67
2022/10/18 02:28:26;;;;;;;13.85;8.18;;;;;;;13.92;100.00;102466.31;5090885;28;20028;-67
2022/10/18 02:31:18;;;;;;;12.00;6.85;;;;;;;13.94;100.00;102466.97;5090875;28;20035;-67
2022/10/18 02:33:55;;;;;;;14.50;8.00;;;;;;;13.93;100.00;102470.66;5090984;28;20059;-67
2022/10/18 02:36:32;;;;;;;13.07;7.55;;;;;;;13.95;100.00;102482.03;5090967;28;20526;-67
2022/10/18 02:39:03;;;;;;;13.45;6.97;;;;;;;13.91;100.00;102478.06;5090950;28;20028;-67
2022/10/18 02:41:30;;;;;;;13.43;7.67;;;;;;;13.90;100.00;102475.53;5090731;28;20487;-67
2022/10/18 02:43:55;;;;;;;12.93;7.68;;;;;;;13.94;100.00;102479.56;5090836;28;20032;-68
2022/10/18 02:46:21;;;;;;;12.38;7.75;;;;;;;13.95;100.00;102481.22;5090467;28;20032;-67
2022/10/18 02:48:46;;;;;;;14.43;8.50;;;;;;;13.94;100.00;102483.06;5090784;28;20028;-67
2022/10/18 02:51:11;;;;;;;13.85;6.82;;;;;;;13.93;100.00;102473.31;5090838;28;20063;-67
2022/10/18 02:53:37;;;;;;;12.07;7.07;;;;;;;13.96;100.00;102483.72;5089457;28;20032;-67
2022/10/18 02:56:02;;;;;;;16.90;8.20;;;;;;;13.95;100.00;102478.53;5090760;28;20036;-67
2022/10/18 02:58:28;;;;;;;13.25;7.53;;;;;;;13.97;100.00;102489.91;5091083;28;20031;-67
2022/10/18 03:00:53;;;;;;;14.88;8.68;;;;;;;13.97;100.00;102484.56;5090532;28;20035;-67
2022/10/18 03:03:19;;;;;;;13.35;8.02;;;;;;;13.99;100.00;102485.19;5090569;28;20028;-67
2022/10/18 03:05:48;;;;;;;19.98;9.88;;;;;;;14.00;100.00;102485.03;5090408;28;20046;-67
2022/10/18 03:08:13;;;;;;;18.52;7.10;;;;;;;13.97;100.00;102481.88;5090249;28;20036;-67
2022/10/18 03:10:39;;;;;;;11.38;7.30;;;;;;;13.93;100.00;102484.06;5090309;28;20031;-67
2022/10/18 03:13:04;;;;;;;16.35;9.20;;;;;;;13.92;100.00;102484.25;5090317;28;20077;-67
2022/10/18 03:15:29;;;;;;;12.82;6.47;;;;;;;13.89;100.00;102496.19;5090286;28;20150;-67
2022/10/18 03:17:55;;;;;;;16.65;9.38;;;;;;;13.88;100.00;102482.94;5090257;28;20028;-67
2022/10/18 03:20:20;;;;;;;11.85;7.45;;;;;;;13.88;100.00;102482.94;5089598;28;20040;-67
2022/10/18 03:22:46;;;;;;;16.15;7.30;;;;;;;13.90;100.00;102495.16;5090099;28;20067;-67
2022/10/18 03:25:11;;;;;;;14.38;7.93;;;;;;;13.89;100.00;102490.81;5090091;28;20966;-67
2022/10/18 03:27:36;;;;;;;16.92;7.97;;;;;;;13.83;100.00;102488.81;5090095;28;20464;-67
2022/10/18 03:30:04;;;;;;;11.40;6.15;;;;;;;13.77;100.00;102485.00;5089665;28;20032;-67
2022/10/18 03:32:29;;;;;;;11.80;6.65;;;;;;;13.75;100.00;102486.19;5090017;28;20499;-68
2022/10/18 03:34:55;;;;;;;14.20;7.93;;;;;;;13.74;100.00;102492.59;5089894;28;20051;-68
2022/10/18 03:37:20;;;;;;;13.57;7.70;;;;;;;13.76;100.00;102487.88;5089732;28;20043;-68
2022/10/18 03:39:46;;;;;;;16.65;9.13;;;;;;;13.77;100.00;102493.06;5089791;28;20047;-68
2022/10/18 03:42:11;;;;;;;14.75;7.22;;;;;;;13.76;100.00;102495.94;5087998;28;20048;-68
2022/10/18 03:44:36;;;;;;;14.23;7.03;;;;;;;13.76;100.00;102502.13;5089824;28;20044;-68
2022/10/18 03:47:02;;;;;;;13.35;7.97;;;;;;;13.75;100.00;102500.47;5089622;28;20364;-68
2022/10/18 03:49:27;;;;;;;13.70;7.45;;;;;;;13.75;100.00;102497.78;5089536;28;20031;-68
2022/10/18 03:51:52;;;;;;;14.43;8.50;;;;;;;13.78;100.00;102499.25;5089649;28;20028;-68
2022/10/18 03:54:18;;;;;;;14.70;7.93;;;;;;;13.79;100.00;102498.25;5089718;28;20119;-68
2022/10/18 03:56:43;;;;;;;11.13;6.00;;;;;;;13.80;100.00;102494.53;5089672;28;20084;-68
2022/10/18 03:59:08;;;;;;;13.95;7.93;;;;;;;13.80;100.00;102486.50;5089115;28;20850;-68
2022/10/18 04:01:34;;;;;;;12.38;7.38;;;;;;;13.78;100.00;102477.78;5089161;28;20464;-68
2022/10/18 04:03:59;;;;;;;11.88;7.22;;;;;;;13.80;100.00;102478.44;5089366;28;20031;-68
2022/10/18 04:06:24;;;;;;;13.60;7.15;;;;;;;13.80;100.00;102471.25;5089261;28;20036;-68
2022/10/18 04:08:49;;;;;;;18.42;9.30;;;;;;;13.76;100.00;102467.25;5089388;28;20043;-68
2022/10/18 04:11:15;;;;;;;21.63;10.43;;;;;;;13.84;100.00;102469.06;5087634;28;20038;-68
2022/10/18 04:13:40;;;;;;;21.85;12.23;;;;;;;13.83;100.00;102467.38;5089442;28;20032;-68
2022/10/18 04:16:06;;;;;;;28.23;11.50;;;;;;;13.86;100.00;102474.22;5089386;28;20073;-68
2022/10/18 04:18:31;;;;;;;28.52;11.02;;;;;;;13.89;100.00;102482.75;5087885;28;20053;-68
2022/10/18 04:20:56;;;;;;;30.85;12.13;;;;;;;13.85;100.00;102484.13;5089249;28;20081;-68
2022/10/18 04:23:22;;;;;;;24.98;11.70;;;;;;;13.83;100.00;102475.41;5089238;28;20529;-68
2022/10/18 04:25:47;;;;;;;28.25;11.65;;;;;;;13.81;100.00;102480.13;5089223;28;20915;-68
2022/10/18 04:28:12;;;;;;;29.20;12.45;;;;;;;13.85;100.00;102485.97;5089403;28;20099;-68
2022/10/18 04:30:38;;;;;;;25.02;12.95;;;;;;;13.83;100.00;102478.09;5089363;28;20024;-68
2022/10/18 04:33:03;;;;;;;26.25;13.93;;;;;;;13.86;100.00;102487.63;5089232;28;20062;-68
2022/10/18 04:35:28;;;;;;;27.63;11.77;;;;;;;13.85;100.00;102486.81;5089318;28;20021;-68
2022/10/18 04:37:54;;;;;;;30.20;14.35;;;;;;;13.86;100.00;102493.84;5089295;28;20032;-68
2022/10/18 04:40:20;;;;;;;24.80;11.38;;;;;;;13.86;100.00;102496.53;5089589;28;20117;-68
2022/10/18 04:42:45;;;;;;;25.23;13.30;;;;;;;13.88;100.00;102496.34;5093005;28;20411;-68
2022/10/18 04:45:11;;;;;;;23.02;12.02;;;;;;;13.87;100.00;102494.69;5093192;28;20483;-68
2022/10/18 04:47:36;;;;;;;27.50;14.35;;;;;;;13.81;100.00;102488.19;5093082;28;20395;-68
2022/10/18 04:50:02;;;;;;;27.80;13.38;;;;;;;13.88;100.00;102496.34;5092698;28;20034;-67
2022/10/18 04:52:27;;;;;;;28.73;15.27;;;;;;;13.89;100.00;102495.34;5093011;28;20042;-67
2022/10/18 04:54:52;;;;;;;23.70;14.18;;;;;;;13.90;100.00;102484.41;5092847;28;20028;-67
2022/10/18 04:57:18;;;;;;;29.38;13.80;;;;;;;13.88;100.00;102488.28;5092399;28;20063;-66
2022/10/18 04:59:43;;;;;;;31.48;13.80;;;;;;;13.88;100.00;102483.75;5091741;28;20067;-67
2022/10/18 05:02:08;;;;;;;31.90;13.95;;;;;;;13.86;100.00;102493.00;5092740;28;20032;-66
2022/10/18 05:04:34;;;;;;;33.28;14.82;;;;;;;13.84;100.00;102485.16;5092921;28;20122;-66
2022/10/18 05:06:59;;;;;;;25.05;14.30;;;;;;;13.84;100.00;102498.56;5092800;28;20036;-66
2022/10/18 05:09:24;;;;;;;32.92;15.43;;;;;;;13.85;100.00;102500.22;5092412;28;20056;-66
2022/10/18 05:11:50;;;;;;;34.38;16.38;;;;;;;13.83;100.00;102494.19;5092480;28;20317;-66
2022/10/18 05:14:15;;;;;;;36.05;17.40;;;;;;;13.83;100.00;102510.28;5092468;28;20036;-66
2022/10/18 05:16:41;;;;;;;28.55;16.30;;;;;;;13.83;100.00;102502.22;5092700;28;20035;-66
2022/10/18 05:19:06;;;;;;;36.17;16.52;;;;;;;13.81;100.00;102504.28;5092593;28;20968;-67
2022/10/18 05:21:32;;;;;;;39.33;18.42;;;;;;;13.81;100.00;102502.44;5092331;28;20031;-66
2022/10/18 05:23:57;;;;;;;29.85;16.05;;;;;;;13.76;100.00;102515.53;5092433;28;20396;-67
2022/10/18 05:26:23;;;;;;;35.28;18.25;;;;;;;13.71;100.00;102503.66;5092203;28;20047;-67
2022/10/18 05:28:49;;;;;;;29.45;17.17;;;;;;;13.70;100.00;102510.88;5092699;28;20506;-66
2022/10/18 05:31:14;;;;;;;29.45;19.10;;;;;;;13.69;100.00;102511.88;5092250;28;20140;-66
2022/10/18 05:33:40;;;;;;;26.45;15.45;;;;;;;13.68;100.00;102509.38;5092237;28;20153;-66
2022/10/18 05:36:05;;;;;;;26.50;14.18;;;;;;;13.65;100.00;102507.03;5091821;28;20028;-67
2022/10/18 05:38:31;;;;;;;29.42;15.40;;;;;;;13.63;100.00;102515.28;5092229;28;20036;-67
2022/10/18 05:40:57;;;;;;;26.60;15.15;;;;;;;13.63;100.00;102517.94;5092078;28;20088;-67
2022/10/18 05:43:27;;;;;;;33.60;17.95;;;;;;;13.60;100.00;102523.66;5092034;28;20036;-67
2022/10/18 05:45:52;;;;;;;27.52;16.23;;;;;;;13.61;100.00;102528.00;5092056;28;20099;-67
2022/10/18 05:48:18;;;;;;;27.45;15.77;;;;;;;13.57;100.00;102518.63;5092018;28;20115;-67
2022/10/18 05:50:43;;;;;;;29.90;16.58;;;;;;;13.54;100.00;102519.81;5090424;28;20528;-66
2022/10/18 05:53:09;;;;;;;25.90;16.17;;;;;;;13.47;100.00;102504.63;5090449;28;20430;-66
2022/10/18 05:55:34;;;;;;;24.30;15.32;;;;;;;13.51;100.00;102520.19;5091902;28;20032;-67
2022/10/18 05:58:00;;;;;;;22.73;14.25;;;;;;;13.45;100.00;102512.84;5091502;28;20032;-67
2022/10/18 06:00:25;;;;;;;34.53;18.60;;;;;;;13.45;100.00;102517.38;5091569;28;20038;-67
2022/10/18 06:02:51;;;;;;;25.00;14.20;;;;;;;13.39;100.00;102516.22;5091631;28;20495;-67
2022/10/18 06:05:17;;;;;;;36.60;18.05;;;;;;;13.49;100.00;102529.41;5091591;28;20036;-66
2022/10/18 06:07:42;;;;;;;30.23;16.35;;;;;;;13.49;100.00;102538.31;5091596;28;20119;-67
2022/10/18 06:10:08;;;;;;;27.65;16.38;;;;;;;13.49;100.00;102538.31;5091526;28;20127;-67
2022/10/18 06:12:33;;;;;;;34.85;16.63;;;;;;;13.46;100.00;102549.34;5091425;28;20122;-67
2022/10/18 06:14:58;;;;;;;25.30;15.00;;;;;;;13.46;100.00;102541.31;5091604;28;20040;-67
2022/10/18 06:17:24;;;;;;;28.13;14.98;;;;;;;13.44;100.00;102539.81;5091042;28;20047;-67
2022/10/18 06:19:49;;;;;;;28.27;16.88;;;;;;;13.43;100.00;102540.84;5091017;28;20047;-67
2022/10/18 06:22:14;;;;;;;29.52;15.20;;;;;;;13.39;100.00;102537.69;5091099;28;20028;-67
2022/10/18 06:24:40;;;;;;;35.25;15.73;;;;;;;13.40;100.00;102547.38;5091147;28;20035;-67
2022/10/18 06:27:08;;;;;;;30.95;14.52;;;;;;;13.41;100.00;102543.66;5091083;28;20052;-66
2022/10/18 06:29:38;;;;;;;26.75;15.40;;;;;;;13.38;100.00;102544.84;5090966;28;20364;-67
2022/10/18 06:32:04;;;;;;;34.30;16.15;;;;;;;13.40;100.00;102549.22;5090713;28;20079;-66
2022/10/18 06:34:30;;;;;;;23.38;12.95;;;;;;;13.40;100.00;102558.09;5091081;28;20024;-67
2022/10/18 06:36:55;;;;;;;29.35;12.02;;;;;;;13.42;100.00;102560.63;5090869;28;20038;-67
2022/10/18 06:39:21;;;;;;;29.02;14.68;;;;;;;13.41;100.00;102564.28;5090723;28;20127;-66
2022/10/18 06:41:46;;;;;;;35.55;16.05;;;;;;;13.38;100.00;102566.28;5090340;28;20079;-67
2022/10/18 06:44:16;;;;;;;39.25;17.05;;;;;;;13.39;100.00;102572.50;5090733;28;20034;-66
2022/10/18 06:46:41;;;;;;;31.80;15.15;;;;;;;13.41;100.00;102575.00;5090770;28;20154;-66
2022/10/18 06:49:07;;;;;;;26.88;15.13;;;;;;;13.43;100.00;102576.50;5090675;28;20491;-66
2022/10/18 06:51:32;;;;;;;29.23;14.63;;;;;;;13.44;100.00;102580.88;5090629;28;20024;-67
2022/10/18 06:53:58;;;;;;;26.88;14.10;;;;;;;13.44;100.00;102580.00;5090303;28;20038;-66
2022/10/18 06:56:23;;;;;;;32.72;14.85;;;;;;;13.45;100.00;102582.53;5090558;28;20028;-67
2022/10/18 06:58:48;;;;;;;28.95;14.32;;;;;;;13.46;100.00;102581.50;5090568;28;20020;-67
2022/10/18 07:01:15;;;;;;;32.65;14.80;;;;;;;13.46;100.00;102591.41;5090408;28;20490;-67
2022/10/18 07:03:42;;;;;;;25.20;14.00;;;;;;;13.47;100.00;102593.94;5090131;28;20036;-67
2022/10/18 07:06:09;;;;;;;25.13;11.93;;;;;;;13.52;100.00;102604.97;5090436;28;20039;-66
2022/10/18 07:08:35;;;;;;;26.05;13.25;;;;;;;13.50;100.00;102595.44;5090306;28;20031;-67
2022/10/18 07:11:01;;;;;;;28.40;13.88;;;;;;;13.41;100.00;102586.56;5090453;28;20040;-66
2022/10/18 07:13:29;;;;;;;32.22;13.00;;;;;;;13.48;100.00;102600.13;5090419;28;20039;-67
2022/10/18 07:16:09;;;;;;;24.90;13.65;;;;;;;13.57;100.00;102610.66;5088941;28;20031;-66
2022/10/18 07:18:37;;;;;;;23.95;12.90;;;;;;;13.59;100.00;102611.28;5090381;28;20123;-66
2022/10/18 07:21:04;;;;;;;30.10;15.10;;;;;;;13.60;100.00;102617.50;5090004;28;20024;-66
2022/10/18 07:23:34;;;;;;;26.00;13.30;;;;;;;13.64;100.00;102621.50;5089920;28;20036;-66
2022/10/18 07:26:00;;;;;;;22.33;11.68;;;;;;;13.64;100.00;102626.84;5089888;28;20108;-66
2022/10/18 07:28:27;;;;;;;21.85;12.20;;;;;;;13.66;100.00;102621.34;5089876;28;20030;-66
2022/10/18 07:30:52;;;;;;;26.02;11.93;;;;;;;13.70;100.00;102628.00;5089827;28;20483;-66
2022/10/18 07:33:19;;;;;;;22.50;12.10;;;;;;;13.75;100.00;102631.00;5089850;28;20032;-66
2022/10/18 07:35:45;;;;;;;19.60;9.75;;;;;;;13.66;100.00;102640.09;5089926;28;20152;-66
2022/10/18 07:38:10;;;;;;;19.60;11.82;;;;;;;13.57;100.00;102642.81;5090008;28;20065;-67
2022/10/18 07:40:35;;;;;;;19.00;10.80;;;;;;;13.58;100.00;102651.69;5089713;28;20043;-67
2022/10/18 07:43:02;;;;;;;20.42;11.00;;;;;;;13.58;100.00;102657.88;5085172;28;20066;-67
2022/10/18 07:45:27;;;;;;;16.67;10.65;;;;;;;13.48;100.00;102661.78;5085048;28;20036;-67
2022/10/18 07:47:55;;;;;;;20.73;10.32;;;;;;;13.33;100.00;102653.59;5085290;28;20020;-67
2022/10/18 07:50:20;;;;;;;18.10;9.77;;;;;;;13.31;100.00;102671.69;5085288;28;21333;-68
2022/10/18 07:52:45;;;;;;;18.90;10.18;;;;;;;13.37;100.00;102671.00;5085306;28;20028;-68
2022/10/18 07:55:11;;;;;;;20.20;10.30;;;;;;;13.37;100.00;102676.38;5085434;28;20423;-68
2022/10/18 07:57:36;;;;;;;20.83;11.13;;;;;;;13.35;100.00;102681.88;5085230;28;20064;-67
2022/10/18 08:00:02;;;;;;;22.58;12.05;;;;;;;13.36;100.00;102680.91;5085285;28;20035;-67
2022/10/18 08:02:27;;;;;;;19.80;11.10;;;;;;;13.38;100.00;102684.22;5085378;28;21002;-69
2022/10/18 08:04:53;;;;;;;20.15;11.13;;;;;;;13.30;100.00;102678.88;5083273;28;20044;-71
2022/10/18 08:07:18;;;;;;;21.05;10.82;;;;;;;13.35;100.00;102691.78;5086442;28;20024;-68
2022/10/18 08:09:43;;;;;;;20.20;11.13;;;;;;;13.38;100.00;102696.78;5089320;28;20032;-68
2022/10/18 08:12:09;;;;;;;23.70;11.65;;;;;;;13.41;100.00;102700.97;5089373;28;20486;-68
2022/10/18 08:14:34;;;;;;;25.15;11.55;;;;;;;13.44;100.00;102706.00;5088745;28;20028;-68
2022/10/18 08:16:59;;;;;;;23.20;13.05;;;;;;;13.44;100.00;102709.53;5088797;28;20100;-74
2022/10/18 08:19:25;;;;;;;26.60;12.82;;;;;;;13.47;100.00;102703.00;5089183;28;20055;-68
2022/10/18 08:21:50;;;;;;;24.65;12.43;;;;;;;13.52;100.00;102706.84;5089066;28;20032;-67
2022/10/18 08:24:15;;;;;;;25.40;13.32;;;;;;;13.54;100.00;102707.47;5089220;28;20965;-67
2022/10/18 08:26:41;;;;;;;30.13;14.27;;;;;;;13.56;100.00;102707.31;5086661;28;20031;-67
2022/10/18 08:29:06;;;;;;;31.05;13.23;;;;;;;13.63;100.00;102707.47;5084405;28;20024;-68
2022/10/18 08:31:31;;;;;;;26.52;15.70;;;;;;;13.77;100.00;102698.72;5084885;28;20017;-68
2022/10/18 08:33:57;;;;;;;26.48;16.45;;;;;;;13.87;100.00;102701.22;5087622;28;20045;-68
2022/10/18 08:36:23;;;;;;;26.02;13.35;;;;;;;13.97;100.00;102715.25;5088993;28;20032;-68
2022/10/18 08:38:48;;;;;;;27.08;16.63;;;;;;;14.06;100.00;102719.56;5089127;28;20024;-67
2022/10/18 08:41:14;;;;;;;27.08;14.50;;;;;;;14.18;100.00;102706.63;5088850;28;20208;-67
2022/10/18 08:43:50;;;;;;;27.17;15.23;;;;;;;14.35;100.00;102718.94;5088893;28;20032;-67
2022/10/18 08:46:16;;;;;;;26.52;15.52;;;;;;;14.45;100.00;102719.53;5088988;28;20379;-67
2022/10/18 08:48:47;;;;;;;26.00;14.32;;;;;;;14.56;100.00;102722.88;5089171;28;20063;-67
2022/10/18 08:51:28;;;;;;;31.92;17.17;;;;;;;14.64;100.00;102728.19;5089153;28;20506;-67
2022/10/18 08:54:09;;;;;;;25.08;15.18;;;;;;;14.69;100.00;102723.13;5088856;28;20385;-68
2022/10/18 08:56:37;;;;;;;30.47;14.97;;;;;;;14.58;100.00;102726.22;5088783;28;20038;-67
2022/10/18 08:59:03;;;;;;;22.50;11.57;;;;;;;14.48;100.00;102731.78;5088872;28;20475;-67
2022/10/18 09:01:46;;;;;;;26.70;12.43;;;;;;;14.38;100.00;102731.16;5088831;28;20476;-67
2022/10/18 09:04:24;;;;;;;23.85;13.73;;;;;;;14.33;100.00;102731.72;5089016;28;20051;-67
2022/10/18 09:07:20;;;;;;;23.48;12.60;;;;;;;14.38;100.00;102729.34;5088966;28;20039;-67
2022/10/18 09:09:51;;;;;;;24.33;13.10;;;;;;;14.45;100.00;102729.47;5060066;28;20047;-67
2022/10/18 09:12:39;;;;;;;25.65;11.73;;;;;;;14.44;100.00;102739.38;5088614;28;20040;-67
2022/10/18 09:15:28;;;;;;;21.27;12.70;;;;;;;14.43;100.00;102745.72;5088323;28;20038;-67
2022/10/18 09:18:12;;;;;;;20.73;11.50;;;;;;;14.39;100.00;102746.28;5088587;28;20476;-67
2022/10/18 09:20:52;;;;;;;27.33;13.10;;;;;;;14.41;100.00;102739.72;5088718;28;20058;-67
2022/10/18 09:23:21;;;;;;;22.55;11.95;;;;;;;14.44;100.00;102742.06;5088634;28;20082;-67
2022/10/18 09:25:53;;;;;;;25.42;11.40;;;;;;;14.47;100.00;102747.06;5088775;28;20020;-67
2022/10/18 09:28:43;;;;;;;23.45;11.52;;;;;;;14.65;100.00;102744.16;5092104;28;20067;-67
2022/10/18 09:31:17;;;;;;;19.35;11.60;;;;;;;14.78;100.00;102732.81;5092159;28;20031;-67
2022/10/18 09:33:51;;;;;;;20.80;12.00;;;;;;;14.84;100.00;102731.25;5091951;28;20111;-67
2022/10/18 09:36:21;;;;;;;24.38;11.02;;;;;;;14.87;100.00;102737.09;5092166;28;20494;-67
2022/10/18 09:38:54;;;;;;;21.20;10.60;;;;;;;14.95;100.00;102746.13;5092018;28;20406;-67
2022/10/18 09:41:26;;;;;;;21.33;11.30;;;;;;;14.94;100.00;102731.88;5091937;28;20496;-67
2022/10/18 09:43:57;;;;;;;27.48;11.50;;;;;;;14.99;100.00;102734.84;5091602;28;20031;-67
2022/10/18 09:46:29;;;;;;;23.15;11.30;;;;;;;15.07;100.00;102739.34;5091940;28;20036;-67
2022/10/18 09:49:06;;;;;;;30.05;12.95;;;;;;;15.16;100.00;102742.78;5092017;28;20024;-67
2022/10/18 09:51:41;;;;;;;25.60;11.52;;;;;;;15.23;100.00;102741.88;5092061;28;20048;-67
2022/10/18 09:54:40;;;;;;;19.73;11.57;;;;;;;15.31;100.00;102741.81;5091970;28;20391;-67
2022/10/18 09:57:15;;;;;;;20.85;11.57;;;;;;;15.40;100.00;102733.66;5091387;28;20106;-67
2022/10/18 09:59:46;;;;;;;18.52;9.13;;;;;;;15.47;100.00;102740.00;5091772;28;20548;-67
2022/10/18 10:02:15;;;;;;;16.27;8.40;;;;;;;15.47;100.00;102740.81;5091650;28;20028;-67
2022/10/18 10:04:40;;;;;;;19.38;8.30;;;;;;;15.47;100.00;102738.13;5091127;28;20077;-67
2022/10/18 10:07:10;;;;;;;19.17;9.25;;;;;;;15.53;100.00;102742.75;5091392;28;20048;-67
2022/10/18 10:09:44;;;;;;;16.23;9.30;;;;;;;15.58;100.00;102750.28;5091479;28;20032;-67
2022/10/18 10:12:29;;;;;;;18.65;8.65;;;;;;;15.61;100.00;102736.47;5091483;28;20024;-67
2022/10/18 10:15:06;;;;;;;17.02;8.68;;;;;;;15.70;100.00;102743.47;5091431;28;20039;-67
2022/10/18 10:17:32;;;;;;;17.27;6.97;;;;;;;15.77;100.00;102744.44;5091503;28;20177;-67
2022/10/18 10:20:04;;;;;;;15.68;7.35;;;;;;;15.80;100.00;102745.06;5091146;28;20035;-67
2022/10/18 10:22:40;;;;;;;15.60;6.13;;;;;;;15.79;100.00;102752.28;5091053;28;20032;-67
2022/10/18 10:25:17;;;;;;;13.00;5.65;;;;;;;15.82;97.10;102756.47;5091183;28;20538;-67
2022/10/18 10:27:44;;;;;;;16.42;5.60;;;;;;;15.81;96.64;102750.25;5091150;28;20038;-67
2022/10/18 10:30:29;;;;;;;14.98;5.80;;;;;;;15.79;94.51;102752.28;5091048;28;20032;-67
2022/10/18 10:32:55;;;;;;;14.30;6.30;;;;;;;15.83;96.85;102748.22;5091071;28;20074;-67
2022/10/18 10:35:29;;;;;;;12.65;5.03;;;;;;;15.85;96.69;102754.25;5091119;28;20024;-67
2022/10/18 10:37:55;;;;;;;14.40;5.57;;;;;;;15.90;92.30;102759.94;5090390;28;20043;-67
2022/10/18 10:40:25;;;;;;;12.90;5.45;;;;;;;15.90;94.37;102759.94;5090770;28;20479;-67
2022/10/18 10:42:54;;;;;;;13.75;5.55;;;;;;;16.00;93.71;102778.47;5090747;28;20096;-67
2022/10/18 10:45:22;;;;;;;13.23;4.35;;;;;;;16.01;88.26;102769.38;5090725;28;20023;-68
2022/10/18 10:47:48;;;;;;;13.80;5.10;;;;;;;16.01;91.57;102769.38;5090644;28;20111;-67
2022/10/18 10:50:23;;;;;;;13.05;3.67;;;;;;;16.09;88.62;102777.38;5090601;28;20028;-67
2022/10/18 10:52:49;;;;;;;6.80;2.88;;;;;;;16.14;87.45;102779.50;5090479;28;20120;-67
2022/10/18 10:55:18;;;;;;;9.68;3.05;;;;;;;16.16;84.11;102778.28;5089431;28;20546;-68
2022/10/18 10:57:46;;;;;;;7.43;2.28;;;;;;;16.21;82.74;102780.41;5090529;28;20073;-67
2022/10/18 11:00:36;;;;;;;6.65;3.28;;;;;;;16.24;83.16;102779.19;5090216;28;20096;-67
2022/10/18 11:03:24;;;;;;;7.30;2.50;;;;;;;16.29;86.09;102780.31;5083626;28;20597;-67
2022/10/18 11:05:54;;;;;;;5.63;2.85;;;;;;;16.33;84.24;102781.63;5090044;28;20728;-67
2022/10/18 11:08:23;;;;;;;8.15;3.38;;;;;;;16.38;82.76;102778.38;5089655;28;20028;-67
2022/10/18 11:11:27;;;;;;;8.68;3.20;;;;;;;16.47;85.30;102790.69;5090230;28;20065;-67
2022/10/18 11:14:02;;;;;;;8.23;3.05;;;;;;;16.50;84.56;102786.78;5090165;28;20054;-67
2022/10/18 11:17:09;;;;;;;6.07;2.70;;;;;;;16.56;86.37;102791.44;5090227;28;20024;-67